sensor_id;sensor_type;location;lat;lon;timestamp;P1;durP1;ratioP1;P2;durP2;ratioP2
57730;SDS011;43570;47.476;19.040;2023-02-28T00:00:30;16.50;;;10.80;;
57730;SDS011;43570;47.476;19.040;2023-02-28T00:02:56;14.70;;;10.55;;
57730;SDS011;43570;47.476;19.040;2023-02-28T00:05:23;14.48;;;10.40;;
57730;SDS011;43570;47.476;19.040;2023-02-28T00:07:49;12.68;;;9.57;;
57730;SDS011;43570;47.476;19.040;2023-02-28T00:10:17;13.52;;;10.20;;
57730;SDS011;43570;47.476;19.040;2023-02-28T00:12:45;16.60;;;10.50;;
57730;SDS011;43570;47.476;19.040;2023-02-28T00:15:14;15.30;;;10.43;;
57730;SDS011;43570;47.476;19.040;2023-02-28T00:17:40;13.50;;;9.63;;
57730;SDS011;43570;47.476;19.040;2023-02-28T00:20:06;13.30;;;9.93;;
57730;SDS011;43570;47.476;19.040;2023-02-28T00:22:40;15.35;;;10.75;;
57730;SDS011;43570;47.476;19.040;2023-02-28T00:25:12;15.13;;;10.48;;
57730;SDS011;43570;47.476;19.040;2023-02-28T00:27:40;14.27;;;10.38;;
57730;SDS011;43570;47.476;19.040;2023-02-28T00:30:06;13.60;;;10.60;;
57730;SDS011;43570;47.476;19.040;2023-02-28T00:32:33;14.43;;;9.95;;
57730;SDS011;43570;47.476;19.040;2023-02-28T00:34:59;13.55;;;10.20;;
57730;SDS011;43570;47.476;19.040;2023-02-28T00:37:25;13.73;;;10.10;;
57730;SDS011;43570;47.476;19.040;2023-02-28T00:39:50;13.85;;;11.25;;
57730;SDS011;43570;47.476;19.040;2023-02-28T00:42:15;15.15;;;10.65;;
57730;SDS011;43570;47.476;19.040;2023-02-28T00:44:41;15.25;;;10.73;;
57730;SDS011;43570;47.476;19.040;2023-02-28T00:47:06;14.45;;;10.85;;
57730;SDS011;43570;47.476;19.040;2023-02-28T00:49:32;15.02;;;10.57;;
57730;SDS011;43570;47.476;19.040;2023-02-28T00:51:57;13.70;;;10.45;;
57730;SDS011;43570;47.476;19.040;2023-02-28T00:54:23;14.63;;;10.43;;
57730;SDS011;43570;47.476;19.040;2023-02-28T00:56:48;13.15;;;10.45;;
57730;SDS011;43570;47.476;19.040;2023-02-28T00:59:14;12.98;;;9.90;;
57730;SDS011;43570;47.476;19.040;2023-02-28T01:01:41;13.65;;;10.50;;
57730;SDS011;43570;47.476;19.040;2023-02-28T01:04:07;12.60;;;9.57;;
57730;SDS011;43570;47.476;19.040;2023-02-28T01:06:32;15.73;;;10.25;;
57730;SDS011;43570;47.476;19.040;2023-02-28T01:08:58;13.38;;;10.23;;
57730;SDS011;43570;47.476;19.040;2023-02-28T01:11:24;14.15;;;10.65;;
57730;SDS011;43570;47.476;19.040;2023-02-28T01:13:49;12.82;;;8.75;;
57730;SDS011;43570;47.476;19.040;2023-02-28T01:16:15;15.55;;;9.60;;
57730;SDS011;43570;47.476;19.040;2023-02-28T01:18:40;13.50;;;9.48;;
57730;SDS011;43570;47.476;19.040;2023-02-28T01:21:13;11.48;;;9.13;;
57730;SDS011;43570;47.476;19.040;2023-02-28T01:23:41;11.23;;;9.02;;
57730;SDS011;43570;47.476;19.040;2023-02-28T01:26:07;13.27;;;9.32;;
57730;SDS011;43570;47.476;19.040;2023-02-28T01:28:34;13.13;;;9.60;;
57730;SDS011;43570;47.476;19.040;2023-02-28T01:31:00;14.80;;;10.32;;
57730;SDS011;43570;47.476;19.040;2023-02-28T01:33:25;12.23;;;9.85;;
57730;SDS011;43570;47.476;19.040;2023-02-28T01:35:57;13.07;;;10.23;;
57730;SDS011;43570;47.476;19.040;2023-02-28T01:38:33;13.88;;;9.70;;
57730;SDS011;43570;47.476;19.040;2023-02-28T01:40:59;11.43;;;8.57;;
57730;SDS011;43570;47.476;19.040;2023-02-28T01:43:26;12.48;;;8.73;;
57730;SDS011;43570;47.476;19.040;2023-02-28T01:45:56;12.77;;;9.00;;
57730;SDS011;43570;47.476;19.040;2023-02-28T01:48:27;12.20;;;9.18;;
57730;SDS011;43570;47.476;19.040;2023-02-28T01:50:55;13.05;;;9.43;;
57730;SDS011;43570;47.476;19.040;2023-02-28T01:53:26;11.88;;;9.02;;
57730;SDS011;43570;47.476;19.040;2023-02-28T01:55:56;14.63;;;9.98;;
57730;SDS011;43570;47.476;19.040;2023-02-28T01:58:22;15.00;;;10.13;;
57730;SDS011;43570;47.476;19.040;2023-02-28T02:00:47;13.05;;;11.43;;
57730;SDS011;43570;47.476;19.040;2023-02-28T02:03:14;14.68;;;11.68;;
57730;SDS011;43570;47.476;19.040;2023-02-28T02:05:40;17.30;;;12.98;;
57730;SDS011;43570;47.476;19.040;2023-02-28T02:08:11;16.80;;;12.37;;
57730;SDS011;43570;47.476;19.040;2023-02-28T02:10:40;16.98;;;13.13;;
57730;SDS011;43570;47.476;19.040;2023-02-28T02:18:14;16.98;;;13.15;;
57730;SDS011;43570;47.476;19.040;2023-02-28T02:37:47;17.37;;;11.20;;
57730;SDS011;43570;47.476;19.040;2023-02-28T02:48:12;13.75;;;9.68;;
57730;SDS011;43570;47.476;19.040;2023-02-28T02:50:44;12.00;;;8.90;;
57730;SDS011;43570;47.476;19.040;2023-02-28T02:53:12;11.88;;;8.60;;
57730;SDS011;43570;47.476;19.040;2023-02-28T02:55:41;11.98;;;9.38;;
57730;SDS011;43570;47.476;19.040;2023-02-28T02:58:10;11.82;;;8.32;;
57730;SDS011;43570;47.476;19.040;2023-02-28T03:00:41;12.35;;;9.23;;
57730;SDS011;43570;47.476;19.040;2023-02-28T03:03:09;12.48;;;9.35;;
57730;SDS011;43570;47.476;19.040;2023-02-28T03:05:39;14.90;;;10.07;;
57730;SDS011;43570;47.476;19.040;2023-02-28T03:08:08;13.40;;;9.73;;
57730;SDS011;43570;47.476;19.040;2023-02-28T03:24:57;12.90;;;10.25;;
57730;SDS011;43570;47.476;19.040;2023-02-28T03:32:47;16.20;;;11.43;;
57730;SDS011;43570;47.476;19.040;2023-02-28T03:35:22;15.70;;;11.43;;
57730;SDS011;43570;47.476;19.040;2023-02-28T03:37:50;15.05;;;10.85;;
57730;SDS011;43570;47.476;19.040;2023-02-28T03:40:22;14.55;;;10.95;;
57730;SDS011;43570;47.476;19.040;2023-02-28T03:42:51;15.27;;;11.63;;
57730;SDS011;43570;47.476;19.040;2023-02-28T03:45:23;15.63;;;11.52;;
57730;SDS011;43570;47.476;19.040;2023-02-28T03:47:52;16.77;;;12.10;;
57730;SDS011;43570;47.476;19.040;2023-02-28T03:50:20;14.63;;;11.50;;
57730;SDS011;43570;47.476;19.040;2023-02-28T03:52:53;15.00;;;10.98;;
57730;SDS011;43570;47.476;19.040;2023-02-28T03:55:42;14.82;;;10.88;;
57730;SDS011;43570;47.476;19.040;2023-02-28T04:01:04;14.32;;;10.68;;
57730;SDS011;43570;47.476;19.040;2023-02-28T04:03:36;14.73;;;9.70;;
57730;SDS011;43570;47.476;19.040;2023-02-28T04:06:02;14.60;;;9.40;;
57730;SDS011;43570;47.476;19.040;2023-02-28T04:08:28;11.93;;;9.23;;
57730;SDS011;43570;47.476;19.040;2023-02-28T04:10:56;14.05;;;9.38;;
57730;SDS011;43570;47.476;19.040;2023-02-28T04:13:26;11.60;;;8.55;;
57730;SDS011;43570;47.476;19.040;2023-02-28T04:15:51;13.80;;;9.05;;
57730;SDS011;43570;47.476;19.040;2023-02-28T04:18:16;12.75;;;8.77;;
57730;SDS011;43570;47.476;19.040;2023-02-28T04:20:42;13.10;;;9.30;;
57730;SDS011;43570;47.476;19.040;2023-02-28T04:23:07;13.23;;;8.70;;
57730;SDS011;43570;47.476;19.040;2023-02-28T04:25:32;11.48;;;9.38;;
57730;SDS011;43570;47.476;19.040;2023-02-28T04:27:58;12.25;;;8.88;;
57730;SDS011;43570;47.476;19.040;2023-02-28T04:30:23;13.62;;;9.88;;
57730;SDS011;43570;47.476;19.040;2023-02-28T04:32:49;15.52;;;9.98;;
57730;SDS011;43570;47.476;19.040;2023-02-28T04:35:14;12.25;;;8.95;;
57730;SDS011;43570;47.476;19.040;2023-02-28T04:37:40;13.68;;;8.68;;
57730;SDS011;43570;47.476;19.040;2023-02-28T04:40:06;11.60;;;8.52;;
57730;SDS011;43570;47.476;19.040;2023-02-28T04:42:32;12.10;;;8.23;;
57730;SDS011;43570;47.476;19.040;2023-02-28T04:45:01;15.43;;;9.90;;
57730;SDS011;43570;47.476;19.040;2023-02-28T04:47:27;13.02;;;9.10;;
57730;SDS011;43570;47.476;19.040;2023-02-28T04:49:53;18.00;;;9.43;;
57730;SDS011;43570;47.476;19.040;2023-02-28T04:52:18;12.73;;;8.63;;
57730;SDS011;43570;47.476;19.040;2023-02-28T04:54:44;11.95;;;8.73;;
57730;SDS011;43570;47.476;19.040;2023-02-28T04:57:10;13.48;;;8.75;;
57730;SDS011;43570;47.476;19.040;2023-02-28T04:59:35;11.95;;;8.80;;
57730;SDS011;43570;47.476;19.040;2023-02-28T05:02:00;13.98;;;9.00;;
57730;SDS011;43570;47.476;19.040;2023-02-28T05:04:31;12.90;;;8.50;;
57730;SDS011;43570;47.476;19.040;2023-02-28T05:07:00;12.73;;;8.38;;
57730;SDS011;43570;47.476;19.040;2023-02-28T05:09:26;13.48;;;8.88;;
57730;SDS011;43570;47.476;19.040;2023-02-28T05:11:52;15.10;;;9.80;;
57730;SDS011;43570;47.476;19.040;2023-02-28T05:14:17;11.80;;;8.65;;
57730;SDS011;43570;47.476;19.040;2023-02-28T05:16:42;13.98;;;9.05;;
57730;SDS011;43570;47.476;19.040;2023-02-28T05:19:08;13.10;;;9.00;;
57730;SDS011;43570;47.476;19.040;2023-02-28T05:21:34;20.40;;;17.27;;
57730;SDS011;43570;47.476;19.040;2023-02-28T05:24:03;15.23;;;9.82;;
57730;SDS011;43570;47.476;19.040;2023-02-28T05:26:30;11.18;;;8.23;;
57730;SDS011;43570;47.476;19.040;2023-02-28T05:28:56;12.77;;;8.70;;
57730;SDS011;43570;47.476;19.040;2023-02-28T05:31:21;16.58;;;8.60;;
57730;SDS011;43570;47.476;19.040;2023-02-28T05:33:47;12.27;;;8.85;;
57730;SDS011;43570;47.476;19.040;2023-02-28T05:36:13;14.20;;;9.50;;
57730;SDS011;43570;47.476;19.040;2023-02-28T05:38:38;12.60;;;9.43;;
57730;SDS011;43570;47.476;19.040;2023-02-28T05:41:07;15.30;;;11.18;;
57730;SDS011;43570;47.476;19.040;2023-02-28T05:43:36;15.20;;;10.15;;
57730;SDS011;43570;47.476;19.040;2023-02-28T05:46:02;12.93;;;9.38;;
57730;SDS011;43570;47.476;19.040;2023-02-28T05:48:29;16.62;;;11.55;;
57730;SDS011;43570;47.476;19.040;2023-02-28T05:50:54;15.40;;;10.68;;
57730;SDS011;43570;47.476;19.040;2023-02-28T05:53:22;13.75;;;10.48;;
57730;SDS011;43570;47.476;19.040;2023-02-28T05:55:48;15.55;;;10.02;;
57730;SDS011;43570;47.476;19.040;2023-02-28T05:58:13;14.90;;;10.00;;
57730;SDS011;43570;47.476;19.040;2023-02-28T06:00:38;16.50;;;10.02;;
57730;SDS011;43570;47.476;19.040;2023-02-28T06:03:04;13.60;;;10.48;;
57730;SDS011;43570;47.476;19.040;2023-02-28T06:05:29;14.45;;;9.77;;
57730;SDS011;43570;47.476;19.040;2023-02-28T06:07:55;17.02;;;9.90;;
57730;SDS011;43570;47.476;19.040;2023-02-28T06:10:20;13.68;;;9.68;;
57730;SDS011;43570;47.476;19.040;2023-02-28T06:12:45;12.80;;;9.20;;
57730;SDS011;43570;47.476;19.040;2023-02-28T06:15:12;14.30;;;9.32;;
57730;SDS011;43570;47.476;19.040;2023-02-28T06:17:40;13.00;;;8.52;;
57730;SDS011;43570;47.476;19.040;2023-02-28T06:20:06;14.48;;;10.43;;
57730;SDS011;43570;47.476;19.040;2023-02-28T06:22:37;14.05;;;8.90;;
57730;SDS011;43570;47.476;19.040;2023-02-28T06:25:03;12.43;;;8.88;;
57730;SDS011;43570;47.476;19.040;2023-02-28T06:27:30;13.00;;;8.93;;
57730;SDS011;43570;47.476;19.040;2023-02-28T06:29:57;12.90;;;8.75;;
57730;SDS011;43570;47.476;19.040;2023-02-28T06:32:22;14.20;;;8.85;;
57730;SDS011;43570;47.476;19.040;2023-02-28T06:34:48;14.25;;;9.60;;
57730;SDS011;43570;47.476;19.040;2023-02-28T06:37:13;12.98;;;9.73;;
57730;SDS011;43570;47.476;19.040;2023-02-28T06:39:39;13.82;;;9.25;;
57730;SDS011;43570;47.476;19.040;2023-02-28T06:42:04;14.48;;;10.68;;
57730;SDS011;43570;47.476;19.040;2023-02-28T06:44:30;14.45;;;10.38;;
57730;SDS011;43570;47.476;19.040;2023-02-28T06:47:00;13.15;;;10.18;;
57730;SDS011;43570;47.476;19.040;2023-02-28T06:49:27;12.80;;;9.60;;
57730;SDS011;43570;47.476;19.040;2023-02-28T06:51:53;13.60;;;9.20;;
57730;SDS011;43570;47.476;19.040;2023-02-28T06:54:19;12.65;;;8.73;;
57730;SDS011;43570;47.476;19.040;2023-02-28T06:56:44;15.32;;;9.77;;
57730;SDS011;43570;47.476;19.040;2023-02-28T06:59:10;13.48;;;8.88;;
57730;SDS011;43570;47.476;19.040;2023-02-28T07:01:36;12.82;;;8.75;;
57730;SDS011;43570;47.476;19.040;2023-02-28T07:04:02;15.85;;;9.50;;
57730;SDS011;43570;47.476;19.040;2023-02-28T07:06:28;14.10;;;8.55;;
57730;SDS011;43570;47.476;19.040;2023-02-28T07:08:54;12.65;;;9.02;;
57730;SDS011;43570;47.476;19.040;2023-02-28T07:11:22;18.05;;;10.85;;
57730;SDS011;43570;47.476;19.040;2023-02-28T07:13:50;13.10;;;8.43;;
57730;SDS011;43570;47.476;19.040;2023-02-28T07:16:17;13.15;;;8.77;;
57730;SDS011;43570;47.476;19.040;2023-02-28T07:18:43;14.15;;;8.13;;
57730;SDS011;43570;47.476;19.040;2023-02-28T07:21:09;13.43;;;8.85;;
57730;SDS011;43570;47.476;19.040;2023-02-28T07:23:35;12.43;;;8.15;;
57730;SDS011;43570;47.476;19.040;2023-02-28T07:26:03;12.63;;;8.38;;
57730;SDS011;43570;47.476;19.040;2023-02-28T07:28:29;11.43;;;8.40;;
57730;SDS011;43570;47.476;19.040;2023-02-28T07:30:55;13.00;;;8.23;;
57730;SDS011;43570;47.476;19.040;2023-02-28T07:33:21;12.90;;;8.50;;
57730;SDS011;43570;47.476;19.040;2023-02-28T07:35:46;15.30;;;8.20;;
57730;SDS011;43570;47.476;19.040;2023-02-28T07:38:12;11.73;;;8.30;;
57730;SDS011;43570;47.476;19.040;2023-02-28T07:40:38;12.68;;;7.93;;
57730;SDS011;43570;47.476;19.040;2023-02-28T07:43:04;11.93;;;8.00;;
57730;SDS011;43570;47.476;19.040;2023-02-28T07:45:29;12.05;;;7.87;;
57730;SDS011;43570;47.476;19.040;2023-02-28T07:47:56;11.43;;;7.43;;
57730;SDS011;43570;47.476;19.040;2023-02-28T07:50:22;11.90;;;7.82;;
57730;SDS011;43570;47.476;19.040;2023-02-28T07:52:47;11.85;;;7.47;;
57730;SDS011;43570;47.476;19.040;2023-02-28T07:55:13;11.65;;;7.87;;
57730;SDS011;43570;47.476;19.040;2023-02-28T07:57:39;11.98;;;8.00;;
57730;SDS011;43570;47.476;19.040;2023-02-28T08:00:06;12.23;;;8.13;;
57730;SDS011;43570;47.476;19.040;2023-02-28T08:02:34;13.48;;;8.68;;
57730;SDS011;43570;47.476;19.040;2023-02-28T08:04:59;12.82;;;7.78;;
57730;SDS011;43570;47.476;19.040;2023-02-28T08:07:25;13.05;;;8.45;;
57730;SDS011;43570;47.476;19.040;2023-02-28T08:09:50;12.93;;;8.80;;
57730;SDS011;43570;47.476;19.040;2023-02-28T08:12:16;12.50;;;8.23;;
57730;SDS011;43570;47.476;19.040;2023-02-28T08:14:41;10.18;;;7.40;;
57730;SDS011;43570;47.476;19.040;2023-02-28T08:17:07;11.85;;;7.53;;
57730;SDS011;43570;47.476;19.040;2023-02-28T08:19:32;13.27;;;8.15;;
57730;SDS011;43570;47.476;19.040;2023-02-28T08:21:58;11.55;;;7.65;;
57730;SDS011;43570;47.476;19.040;2023-02-28T08:24:23;11.45;;;7.47;;
57730;SDS011;43570;47.476;19.040;2023-02-28T08:26:49;10.60;;;6.93;;
57730;SDS011;43570;47.476;19.040;2023-02-28T08:29:15;9.45;;;6.05;;
57730;SDS011;43570;47.476;19.040;2023-02-28T08:31:41;15.32;;;7.62;;
57730;SDS011;43570;47.476;19.040;2023-02-28T08:34:07;13.62;;;7.10;;
57730;SDS011;43570;47.476;19.040;2023-02-28T08:36:34;13.98;;;7.50;;
57730;SDS011;43570;47.476;19.040;2023-02-28T08:38:59;13.13;;;7.90;;
57730;SDS011;43570;47.476;19.040;2023-02-28T08:41:25;9.45;;;7.22;;
57730;SDS011;43570;47.476;19.040;2023-02-28T08:43:51;11.05;;;7.00;;
57730;SDS011;43570;47.476;19.040;2023-02-28T08:46:16;10.73;;;7.72;;
57730;SDS011;43570;47.476;19.040;2023-02-28T08:48:42;13.50;;;8.35;;
57730;SDS011;43570;47.476;19.040;2023-02-28T08:51:17;11.05;;;7.20;;
57730;SDS011;43570;47.476;19.040;2023-02-28T08:53:47;11.75;;;7.75;;
57730;SDS011;43570;47.476;19.040;2023-02-28T08:56:15;11.80;;;7.70;;
57730;SDS011;43570;47.476;19.040;2023-02-28T08:58:44;12.52;;;8.55;;
57730;SDS011;43570;47.476;19.040;2023-02-28T09:01:15;9.48;;;6.90;;
57730;SDS011;43570;47.476;19.040;2023-02-28T09:03:43;10.20;;;6.90;;
57730;SDS011;43570;47.476;19.040;2023-02-28T09:06:11;10.05;;;6.72;;
57730;SDS011;43570;47.476;19.040;2023-02-28T09:08:37;10.45;;;7.35;;
57730;SDS011;43570;47.476;19.040;2023-02-28T09:11:02;10.10;;;6.55;;
57730;SDS011;43570;47.476;19.040;2023-02-28T09:13:28;10.15;;;6.55;;
57730;SDS011;43570;47.476;19.040;2023-02-28T09:15:54;10.95;;;7.30;;
57730;SDS011;43570;47.476;19.040;2023-02-28T09:18:22;12.57;;;7.85;;
57730;SDS011;43570;47.476;19.040;2023-02-28T09:20:47;14.95;;;8.23;;
57730;SDS011;43570;47.476;19.040;2023-02-28T09:23:13;11.00;;;6.78;;
57730;SDS011;43570;47.476;19.040;2023-02-28T09:25:44;11.98;;;7.53;;
57730;SDS011;43570;47.476;19.040;2023-02-28T09:28:14;13.70;;;7.90;;
57730;SDS011;43570;47.476;19.040;2023-02-28T09:30:47;10.63;;;7.05;;
57730;SDS011;43570;47.476;19.040;2023-02-28T09:33:14;13.07;;;7.70;;
57730;SDS011;43570;47.476;19.040;2023-02-28T09:35:40;14.38;;;9.40;;
57730;SDS011;43570;47.476;19.040;2023-02-28T09:38:05;10.90;;;7.20;;
57730;SDS011;43570;47.476;19.040;2023-02-28T09:40:34;12.15;;;7.47;;
57730;SDS011;43570;47.476;19.040;2023-02-28T09:45:35;11.40;;;7.50;;
57730;SDS011;43570;47.476;19.040;2023-02-28T09:48:21;14.27;;;9.10;;
57730;SDS011;43570;47.476;19.040;2023-02-28T09:50:50;11.45;;;7.18;;
57730;SDS011;43570;47.476;19.040;2023-02-28T09:55:47;13.55;;;8.30;;
57730;SDS011;43570;47.476;19.040;2023-02-28T09:58:17;12.20;;;7.90;;
57730;SDS011;43570;47.476;19.040;2023-02-28T10:00:46;10.63;;;6.72;;
57730;SDS011;43570;47.476;19.040;2023-02-28T10:03:28;9.40;;;7.32;;
57730;SDS011;43570;47.476;19.040;2023-02-28T10:08:43;9.68;;;7.25;;
57730;SDS011;43570;47.476;19.040;2023-02-28T10:11:16;10.02;;;7.43;;
57730;SDS011;43570;47.476;19.040;2023-02-28T10:16:36;14.23;;;8.32;;
57730;SDS011;43570;47.476;19.040;2023-02-28T10:19:10;9.85;;;7.05;;
57730;SDS011;43570;47.476;19.040;2023-02-28T10:21:41;9.75;;;6.68;;
57730;SDS011;43570;47.476;19.040;2023-02-28T10:29:46;9.93;;;6.35;;
57730;SDS011;43570;47.476;19.040;2023-02-28T10:32:14;12.20;;;7.95;;
57730;SDS011;43570;47.476;19.040;2023-02-28T10:34:42;12.07;;;7.10;;
57730;SDS011;43570;47.476;19.040;2023-02-28T10:37:07;13.27;;;8.00;;
57730;SDS011;43570;47.476;19.040;2023-02-28T10:39:34;12.75;;;7.82;;
57730;SDS011;43570;47.476;19.040;2023-02-28T10:42:00;11.40;;;7.53;;
57730;SDS011;43570;47.476;19.040;2023-02-28T10:44:26;8.93;;;5.95;;
57730;SDS011;43570;47.476;19.040;2023-02-28T10:46:52;10.88;;;6.15;;
57730;SDS011;43570;47.476;19.040;2023-02-28T10:51:57;10.20;;;6.57;;
57730;SDS011;43570;47.476;19.040;2023-02-28T10:54:27;11.93;;;7.60;;
57730;SDS011;43570;47.476;19.040;2023-02-28T10:59:42;11.68;;;7.87;;
57730;SDS011;43570;47.476;19.040;2023-02-28T11:04:56;12.18;;;6.62;;
57730;SDS011;43570;47.476;19.040;2023-02-28T11:07:22;10.65;;;7.22;;
57730;SDS011;43570;47.476;19.040;2023-02-28T11:09:49;12.07;;;6.50;;
57730;SDS011;43570;47.476;19.040;2023-02-28T11:12:26;9.85;;;7.37;;
57730;SDS011;43570;47.476;19.040;2023-02-28T11:15:05;10.35;;;7.25;;
57730;SDS011;43570;47.476;19.040;2023-02-28T11:17:44;10.18;;;7.03;;
57730;SDS011;43570;47.476;19.040;2023-02-28T11:20:13;10.88;;;7.15;;
57730;SDS011;43570;47.476;19.040;2023-02-28T11:22:45;9.77;;;6.62;;
57730;SDS011;43570;47.476;19.040;2023-02-28T11:25:28;11.18;;;7.10;;
57730;SDS011;43570;47.476;19.040;2023-02-28T11:27:57;12.00;;;7.20;;
57730;SDS011;43570;47.476;19.040;2023-02-28T11:33:00;10.00;;;7.07;;
57730;SDS011;43570;47.476;19.040;2023-02-28T11:35:33;11.12;;;6.95;;
57730;SDS011;43570;47.476;19.040;2023-02-28T11:38:02;12.82;;;7.35;;
57730;SDS011;43570;47.476;19.040;2023-02-28T11:40:30;12.20;;;7.62;;
57730;SDS011;43570;47.476;19.040;2023-02-28T11:45:49;9.90;;;7.50;;
57730;SDS011;43570;47.476;19.040;2023-02-28T11:53:45;12.13;;;8.07;;
57730;SDS011;43570;47.476;19.040;2023-02-28T12:01:53;11.10;;;6.65;;
57730;SDS011;43570;47.476;19.040;2023-02-28T12:10:26;11.30;;;7.50;;
57730;SDS011;43570;47.476;19.040;2023-02-28T12:16:27;9.65;;;7.18;;
57730;SDS011;43570;47.476;19.040;2023-02-28T12:21:05;12.18;;;7.85;;
57730;SDS011;43570;47.476;19.040;2023-02-28T12:28:59;10.82;;;7.65;;
57730;SDS011;43570;47.476;19.040;2023-02-28T12:31:31;11.12;;;7.93;;
57730;SDS011;43570;47.476;19.040;2023-02-28T12:34:01;10.50;;;6.75;;
57730;SDS011;43570;47.476;19.040;2023-02-28T12:36:28;10.63;;;7.50;;
57730;SDS011;43570;47.476;19.040;2023-02-28T12:39:02;9.50;;;6.78;;
57730;SDS011;43570;47.476;19.040;2023-02-28T12:44:27;10.80;;;7.28;;
57730;SDS011;43570;47.476;19.040;2023-02-28T12:47:01;11.10;;;7.35;;
57730;SDS011;43570;47.476;19.040;2023-02-28T12:51:56;12.37;;;7.22;;
57730;SDS011;43570;47.476;19.040;2023-02-28T12:54:33;10.02;;;6.60;;
57730;SDS011;43570;47.476;19.040;2023-02-28T12:57:25;12.80;;;6.87;;
57730;SDS011;43570;47.476;19.040;2023-02-28T12:59:57;20.37;;;10.48;;
57730;SDS011;43570;47.476;19.040;2023-02-28T13:05:25;14.48;;;7.32;;
57730;SDS011;43570;47.476;19.040;2023-02-28T13:10:46;13.30;;;7.62;;
57730;SDS011;43570;47.476;19.040;2023-02-28T13:13:17;12.73;;;7.07;;
57730;SDS011;43570;47.476;19.040;2023-02-28T13:16:16;12.50;;;6.50;;
57730;SDS011;43570;47.476;19.040;2023-02-28T13:18:39;12.55;;;6.20;;
57730;SDS011;43570;47.476;19.040;2023-02-28T13:21:08;10.80;;;6.20;;
57730;SDS011;43570;47.476;19.040;2023-02-28T13:26:12;9.85;;;6.65;;
57730;SDS011;43570;47.476;19.040;2023-02-28T13:31:22;11.12;;;6.60;;
57730;SDS011;43570;47.476;19.040;2023-02-28T13:36:29;9.20;;;6.22;;
57730;SDS011;43570;47.476;19.040;2023-02-28T13:39:03;10.35;;;6.07;;
57730;SDS011;43570;47.476;19.040;2023-02-28T13:42:23;8.25;;;5.72;;
57730;SDS011;43570;47.476;19.040;2023-02-28T13:52:48;12.13;;;6.65;;
57730;SDS011;43570;47.476;19.040;2023-02-28T13:57:57;11.45;;;6.20;;
57730;SDS011;43570;47.476;19.040;2023-02-28T14:00:50;9.82;;;5.80;;
57730;SDS011;43570;47.476;19.040;2023-02-28T14:06:24;9.75;;;5.87;;
57730;SDS011;43570;47.476;19.040;2023-02-28T14:08:59;11.70;;;5.40;;
57730;SDS011;43570;47.476;19.040;2023-02-28T14:11:37;9.77;;;6.07;;
57730;SDS011;43570;47.476;19.040;2023-02-28T14:14:04;8.65;;;4.95;;
57730;SDS011;43570;47.476;19.040;2023-02-28T14:16:41;9.75;;;5.65;;
57730;SDS011;43570;47.476;19.040;2023-02-28T14:19:43;10.35;;;5.35;;
57730;SDS011;43570;47.476;19.040;2023-02-28T14:39:10;9.55;;;5.65;;
57730;SDS011;43570;47.476;19.040;2023-02-28T14:41:39;9.73;;;5.82;;
57730;SDS011;43570;47.476;19.040;2023-02-28T14:44:39;9.93;;;5.57;;
57730;SDS011;43570;47.476;19.040;2023-02-28T14:46:59;11.30;;;6.47;;
57730;SDS011;43570;47.476;19.040;2023-02-28T14:49:51;11.55;;;6.30;;
57730;SDS011;43570;47.476;19.040;2023-02-28T14:52:24;10.43;;;6.82;;
57730;SDS011;43570;47.476;19.040;2023-02-28T14:55:01;10.68;;;6.53;;
57730;SDS011;43570;47.476;19.040;2023-02-28T14:57:33;10.75;;;6.12;;
57730;SDS011;43570;47.476;19.040;2023-02-28T15:02:30;10.52;;;7.00;;
57730;SDS011;43570;47.476;19.040;2023-02-28T15:07:25;8.98;;;6.40;;
57730;SDS011;43570;47.476;19.040;2023-02-28T15:12:44;9.80;;;6.53;;
57730;SDS011;43570;47.476;19.040;2023-02-28T15:15:16;10.60;;;6.57;;
57730;SDS011;43570;47.476;19.040;2023-02-28T15:17:45;14.50;;;6.93;;
57730;SDS011;43570;47.476;19.040;2023-02-28T15:20:14;12.90;;;6.62;;
57730;SDS011;43570;47.476;19.040;2023-02-28T15:22:40;10.90;;;8.13;;
57730;SDS011;43570;47.476;19.040;2023-02-28T15:25:06;10.90;;;6.82;;
57730;SDS011;43570;47.476;19.040;2023-02-28T15:27:33;11.75;;;7.20;;
57730;SDS011;43570;47.476;19.040;2023-02-28T15:30:00;10.68;;;7.40;;
57730;SDS011;43570;47.476;19.040;2023-02-28T15:32:34;9.57;;;6.25;;
57730;SDS011;43570;47.476;19.040;2023-02-28T15:35:17;12.63;;;8.23;;
57730;SDS011;43570;47.476;19.040;2023-02-28T15:37:48;12.70;;;7.55;;
57730;SDS011;43570;47.476;19.040;2023-02-28T15:45:58;11.65;;;8.38;;
57730;SDS011;43570;47.476;19.040;2023-02-28T15:48:33;12.30;;;7.80;;
57730;SDS011;43570;47.476;19.040;2023-02-28T15:53:43;13.30;;;8.38;;
57730;SDS011;43570;47.476;19.040;2023-02-28T15:56:26;15.63;;;9.27;;
57730;SDS011;43570;47.476;19.040;2023-02-28T15:58:59;17.05;;;8.77;;
57730;SDS011;43570;47.476;19.040;2023-02-28T16:01:33;11.38;;;8.07;;
57730;SDS011;43570;47.476;19.040;2023-02-28T16:04:06;13.45;;;9.88;;
57730;SDS011;43570;47.476;19.040;2023-02-28T16:09:22;12.95;;;9.18;;
57730;SDS011;43570;47.476;19.040;2023-02-28T16:11:49;13.32;;;8.95;;
57730;SDS011;43570;47.476;19.040;2023-02-28T16:14:25;12.35;;;8.73;;
57730;SDS011;43570;47.476;19.040;2023-02-28T16:16:53;12.52;;;8.52;;
57730;SDS011;43570;47.476;19.040;2023-02-28T16:19:20;12.73;;;8.68;;
57730;SDS011;43570;47.476;19.040;2023-02-28T16:21:46;13.88;;;9.27;;
57730;SDS011;43570;47.476;19.040;2023-02-28T16:24:12;12.30;;;9.38;;
57730;SDS011;43570;47.476;19.040;2023-02-28T16:26:42;14.63;;;9.50;;
57730;SDS011;43570;47.476;19.040;2023-02-28T16:29:13;13.32;;;9.65;;
57730;SDS011;43570;47.476;19.040;2023-02-28T16:32:06;12.60;;;9.15;;
57730;SDS011;43570;47.476;19.040;2023-02-28T16:34:31;12.02;;;9.50;;
57730;SDS011;43570;47.476;19.040;2023-02-28T16:36:57;12.50;;;9.65;;
57730;SDS011;43570;47.476;19.040;2023-02-28T16:39:23;13.68;;;9.00;;
57730;SDS011;43570;47.476;19.040;2023-02-28T16:41:49;11.65;;;9.25;;
57730;SDS011;43570;47.476;19.040;2023-02-28T16:44:29;11.43;;;8.90;;
57730;SDS011;43570;47.476;19.040;2023-02-28T16:47:01;14.02;;;10.07;;
57730;SDS011;43570;47.476;19.040;2023-02-28T16:49:27;13.75;;;9.52;;
57730;SDS011;43570;47.476;19.040;2023-02-28T16:51:53;14.38;;;12.02;;
57730;SDS011;43570;47.476;19.040;2023-02-28T16:54:19;14.60;;;9.40;;
57730;SDS011;43570;47.476;19.040;2023-02-28T16:56:45;14.98;;;9.95;;
57730;SDS011;43570;47.476;19.040;2023-02-28T16:59:12;13.75;;;9.52;;
57730;SDS011;43570;47.476;19.040;2023-02-28T17:01:46;14.23;;;9.20;;
57730;SDS011;43570;47.476;19.040;2023-02-28T17:04:12;13.73;;;9.70;;
57730;SDS011;43570;47.476;19.040;2023-02-28T17:06:38;13.62;;;9.32;;
57730;SDS011;43570;47.476;19.040;2023-02-28T17:09:04;13.25;;;9.85;;
57730;SDS011;43570;47.476;19.040;2023-02-28T17:11:30;15.73;;;10.57;;
57730;SDS011;43570;47.476;19.040;2023-02-28T17:13:56;13.65;;;10.10;;
57730;SDS011;43570;47.476;19.040;2023-02-28T17:16:28;14.23;;;10.73;;
57730;SDS011;43570;47.476;19.040;2023-02-28T17:18:57;12.57;;;9.88;;
57730;SDS011;43570;47.476;19.040;2023-02-28T17:21:24;13.75;;;10.45;;
57730;SDS011;43570;47.476;19.040;2023-02-28T17:23:50;16.40;;;10.30;;
57730;SDS011;43570;47.476;19.040;2023-02-28T17:26:16;17.40;;;11.05;;
57730;SDS011;43570;47.476;19.040;2023-02-28T17:28:49;15.48;;;11.15;;